sensor_id;sensor_type;location;lat;lon;timestamp;temperature;humidity
54884;DHT22;40776;52.880;6.016;2022-07-29T01:32:25;14.70;99.90
54884;DHT22;40776;52.880;6.016;2022-07-29T01:55:04;14.40;99.90
54884;DHT22;40776;52.880;6.016;2022-07-29T06:39:37;16.60;99.90
54884;DHT22;40776;52.880;6.016;2022-07-29T06:56:44;17.40;99.90
54884;DHT22;40776;52.880;6.016;2022-07-29T07:01:39;17.50;99.90
54884;DHT22;40776;52.880;6.016;2022-07-29T08:46:47;16.60;99.90
54884;DHT22;40776;52.880;6.016;2022-07-29T09:16:07;17.90;99.90
54884;DHT22;40776;52.880;6.016;2022-07-29T10:21:18;18.80;99.90
54884;DHT22;40776;52.880;6.016;2022-07-29T10:23:44;18.80;99.90
54884;DHT22;40776;52.880;6.016;2022-07-29T10:31:06;19.20;99.90
54884;DHT22;40776;52.880;6.016;2022-07-29T10:42:15;20.30;99.90
54884;DHT22;40776;52.880;6.016;2022-07-29T10:47:20;20.50;99.90
54884;DHT22;40776;52.880;6.016;2022-07-29T10:50:00;20.80;99.90
54884;DHT22;40776;52.880;6.016;2022-07-29T10:55:37;20.90;99.90
54884;DHT22;40776;52.880;6.016;2022-07-29T11:00:40;21.00;99.90
54884;DHT22;40776;52.880;6.016;2022-07-29T11:05:55;21.00;99.90
54884;DHT22;40776;52.880;6.016;2022-07-29T11:08:22;20.90;99.90
54884;DHT22;40776;52.880;6.016;2022-07-29T11:10:51;20.80;99.90
54884;DHT22;40776;52.880;6.016;2022-07-29T11:13:57;21.00;99.90
54884;DHT22;40776;52.880;6.016;2022-07-29T11:16:22;21.30;99.90
54884;DHT22;40776;52.880;6.016;2022-07-29T11:21:42;21.40;99.90
54884;DHT22;40776;52.880;6.016;2022-07-29T11:24:22;21.70;99.90
54884;DHT22;40776;52.880;6.016;2022-07-29T11:29:38;21.60;99.90
54884;DHT22;40776;52.880;6.016;2022-07-29T11:32:13;21.60;99.90
54884;DHT22;40776;52.880;6.016;2022-07-29T11:34:45;21.90;99.90
54884;DHT22;40776;52.880;6.016;2022-07-29T11:44:58;22.80;99.90
54884;DHT22;40776;52.880;6.016;2022-07-29T11:47:27;22.80;99.90
54884;DHT22;40776;52.880;6.016;2022-07-29T11:49:54;23.00;99.90
54884;DHT22;40776;52.880;6.016;2022-07-29T11:52:20;23.80;99.90
54884;DHT22;40776;52.880;6.016;2022-07-29T11:54:50;23.60;99.90
54884;DHT22;40776;52.880;6.016;2022-07-29T11:57:17;23.40;99.90
54884;DHT22;40776;52.880;6.016;2022-07-29T11:59:45;23.50;99.90
54884;DHT22;40776;52.880;6.016;2022-07-29T12:07:15;23.70;99.90
54884;DHT22;40776;52.880;6.016;2022-07-29T12:09:49;23.60;99.90
54884;DHT22;40776;52.880;6.016;2022-07-29T12:12:16;23.60;99.90
54884;DHT22;40776;52.880;6.016;2022-07-29T12:14:42;25.10;99.90
54884;DHT22;40776;52.880;6.016;2022-07-29T12:17:29;23.60;99.90
54884;DHT22;40776;52.880;6.016;2022-07-29T12:19:59;23.60;99.90
54884;DHT22;40776;52.880;6.016;2022-07-29T12:24:55;23.40;99.90
54884;DHT22;40776;52.880;6.016;2022-07-29T12:27:22;23.40;99.90
54884;DHT22;40776;52.880;6.016;2022-07-29T12:29:58;23.80;99.90
54884;DHT22;40776;52.880;6.016;2022-07-29T12:32:31;23.80;99.90
54884;DHT22;40776;52.880;6.016;2022-07-29T12:34:57;24.00;99.90
54884;DHT22;40776;52.880;6.016;2022-07-29T12:37:24;23.70;99.90
54884;DHT22;40776;52.880;6.016;2022-07-29T12:39:50;24.00;99.90
54884;DHT22;40776;52.880;6.016;2022-07-29T12:42:16;24.30;99.90
54884;DHT22;40776;52.880;6.016;2022-07-29T12:44:48;23.60;99.90
54884;DHT22;40776;52.880;6.016;2022-07-29T12:47:14;24.00;99.90
54884;DHT22;40776;52.880;6.016;2022-07-29T12:49:40;24.80;99.90
54884;DHT22;40776;52.880;6.016;2022-07-29T12:54:50;26.10;99.90
54884;DHT22;40776;52.880;6.016;2022-07-29T12:57:16;24.90;99.90
54884;DHT22;40776;52.880;6.016;2022-07-29T12:59:41;25.10;99.90
54884;DHT22;40776;52.880;6.016;2022-07-29T13:02:18;24.90;99.90
54884;DHT22;40776;52.880;6.016;2022-07-29T13:04:55;25.10;99.90
54884;DHT22;40776;52.880;6.016;2022-07-29T13:07:27;24.70;99.90
54884;DHT22;40776;52.880;6.016;2022-07-29T13:09:55;24.90;99.90
54884;DHT22;40776;52.880;6.016;2022-07-29T13:12:34;25.10;99.90
54884;DHT22;40776;52.880;6.016;2022-07-29T13:15:00;25.00;99.90
54884;DHT22;40776;52.880;6.016;2022-07-29T13:17:26;24.70;99.90
54884;DHT22;40776;52.880;6.016;2022-07-29T13:20:08;25.10;99.90
54884;DHT22;40776;52.880;6.016;2022-07-29T13:22:38;25.00;99.90
54884;DHT22;40776;52.880;6.016;2022-07-29T13:25:04;25.00;99.90
54884;DHT22;40776;52.880;6.016;2022-07-29T13:27:34;25.60;99.90
54884;DHT22;40776;52.880;6.016;2022-07-29T13:30:04;25.00;99.90
54884;DHT22;40776;52.880;6.016;2022-07-29T13:32:31;25.30;99.90
54884;DHT22;40776;52.880;6.016;2022-07-29T13:34:59;25.50;99.90
54884;DHT22;40776;52.880;6.016;2022-07-29T13:37:26;25.30;99.90
54884;DHT22;40776;52.880;6.016;2022-07-29T13:39:55;24.20;99.90
54884;DHT22;40776;52.880;6.016;2022-07-29T13:42:21;24.10;99.90
54884;DHT22;40776;52.880;6.016;2022-07-29T13:44:47;24.10;99.90
54884;DHT22;40776;52.880;6.016;2022-07-29T13:47:16;24.00;99.90
54884;DHT22;40776;52.880;6.016;2022-07-29T13:49:41;24.40;99.90
54884;DHT22;40776;52.880;6.016;2022-07-29T13:52:07;24.70;99.90
54884;DHT22;40776;52.880;6.016;2022-07-29T13:54:33;24.50;99.90
54884;DHT22;40776;52.880;6.016;2022-07-29T13:57:01;24.90;99.90
54884;DHT22;40776;52.880;6.016;2022-07-29T13:59:29;24.40;99.90
54884;DHT22;40776;52.880;6.016;2022-07-29T14:01:55;24.60;99.90
54884;DHT22;40776;52.880;6.016;2022-07-29T14:04:20;24.70;99.90
54884;DHT22;40776;52.880;6.016;2022-07-29T14:06:48;24.90;99.90
54884;DHT22;40776;52.880;6.016;2022-07-29T14:09:14;25.20;99.90
54884;DHT22;40776;52.880;6.016;2022-07-29T14:11:40;25.00;99.90
54884;DHT22;40776;52.880;6.016;2022-07-29T14:14:06;25.10;99.90
54884;DHT22;40776;52.880;6.016;2022-07-29T14:16:32;25.40;99.90
54884;DHT22;40776;52.880;6.016;2022-07-29T14:18:58;25.10;99.90
54884;DHT22;40776;52.880;6.016;2022-07-29T14:21:24;25.70;99.90
54884;DHT22;40776;52.880;6.016;2022-07-29T14:23:49;26.00;99.90
54884;DHT22;40776;52.880;6.016;2022-07-29T14:26:15;26.00;99.90
54884;DHT22;40776;52.880;6.016;2022-07-29T14:28:41;26.00;99.90
54884;DHT22;40776;52.880;6.016;2022-07-29T14:31:08;25.60;99.90
54884;DHT22;40776;52.880;6.016;2022-07-29T14:33:33;25.90;99.90
54884;DHT22;40776;52.880;6.016;2022-07-29T14:35:59;27.60;99.90
54884;DHT22;40776;52.880;6.016;2022-07-29T14:38:25;26.30;99.90
54884;DHT22;40776;52.880;6.016;2022-07-29T14:40:50;26.40;99.90
54884;DHT22;40776;52.880;6.016;2022-07-29T14:43:16;26.50;99.90
54884;DHT22;40776;52.880;6.016;2022-07-29T14:45:42;27.00;99.90
54884;DHT22;40776;52.880;6.016;2022-07-29T14:48:07;27.20;99.90
54884;DHT22;40776;52.880;6.016;2022-07-29T14:50:33;27.40;99.90
54884;DHT22;40776;52.880;6.016;2022-07-29T14:52:59;28.20;99.90
54884;DHT22;40776;52.880;6.016;2022-07-29T14:55:26;28.90;99.90
54884;DHT22;40776;52.880;6.016;2022-07-29T14:57:51;29.20;99.50
54884;DHT22;40776;52.880;6.016;2022-07-29T15:00:17;29.70;99.30
54884;DHT22;40776;52.880;6.016;2022-07-29T15:02:43;29.90;98.80
54884;DHT22;40776;52.880;6.016;2022-07-29T15:05:09;30.40;98.10
54884;DHT22;40776;52.880;6.016;2022-07-29T15:07:35;30.10;97.90
54884;DHT22;40776;52.880;6.016;2022-07-29T15:10:01;29.60;97.50
54884;DHT22;40776;52.880;6.016;2022-07-29T15:12:30;29.70;96.70
54884;DHT22;40776;52.880;6.016;2022-07-29T15:14:55;29.00;97.30
54884;DHT22;40776;52.880;6.016;2022-07-29T15:17:21;28.40;98.30
54884;DHT22;40776;52.880;6.016;2022-07-29T15:19:47;28.50;97.80
54884;DHT22;40776;52.880;6.016;2022-07-29T15:22:16;28.40;98.50
54884;DHT22;40776;52.880;6.016;2022-07-29T15:24:41;29.30;98.90
54884;DHT22;40776;52.880;6.016;2022-07-29T15:27:07;30.00;97.60
54884;DHT22;40776;52.880;6.016;2022-07-29T15:29:40;30.00;96.70
54884;DHT22;40776;52.880;6.016;2022-07-29T15:32:06;30.10;96.70
54884;DHT22;40776;52.880;6.016;2022-07-29T15:34:31;30.30;95.80
54884;DHT22;40776;52.880;6.016;2022-07-29T15:36:57;30.20;95.20
54884;DHT22;40776;52.880;6.016;2022-07-29T15:39:22;29.50;95.80
54884;DHT22;40776;52.880;6.016;2022-07-29T15:41:49;29.90;96.10
54884;DHT22;40776;52.880;6.016;2022-07-29T15:44:14;30.20;95.50
54884;DHT22;40776;52.880;6.016;2022-07-29T15:46:40;30.90;95.10
54884;DHT22;40776;52.880;6.016;2022-07-29T15:49:24;31.00;94.00
54884;DHT22;40776;52.880;6.016;2022-07-29T15:51:59;31.40;94.00
54884;DHT22;40776;52.880;6.016;2022-07-29T15:54:26;31.70;92.90
54884;DHT22;40776;52.880;6.016;2022-07-29T15:56:52;30.80;93.20
54884;DHT22;40776;52.880;6.016;2022-07-29T15:59:19;30.80;93.70
54884;DHT22;40776;52.880;6.016;2022-07-29T16:01:44;30.70;93.70
54884;DHT22;40776;52.880;6.016;2022-07-29T16:04:10;30.90;93.70
54884;DHT22;40776;52.880;6.016;2022-07-29T16:06:36;31.30;93.80
54884;DHT22;40776;52.880;6.016;2022-07-29T16:09:02;31.20;93.60
54884;DHT22;40776;52.880;6.016;2022-07-29T16:11:28;31.40;93.50
54884;DHT22;40776;52.880;6.016;2022-07-29T16:13:53;31.30;93.40
54884;DHT22;40776;52.880;6.016;2022-07-29T16:16:19;31.30;93.40
54884;DHT22;40776;52.880;6.016;2022-07-29T16:18:45;31.80;93.00
54884;DHT22;40776;52.880;6.016;2022-07-29T16:21:11;32.00;92.60
54884;DHT22;40776;52.880;6.016;2022-07-29T16:23:38;31.80;92.70
54884;DHT22;40776;52.880;6.016;2022-07-29T16:26:04;31.60;91.90
54884;DHT22;40776;52.880;6.016;2022-07-29T16:28:29;31.10;92.00
54884;DHT22;40776;52.880;6.016;2022-07-29T16:30:55;30.40;92.60
54884;DHT22;40776;52.880;6.016;2022-07-29T16:33:24;30.30;92.90
54884;DHT22;40776;52.880;6.016;2022-07-29T16:35:50;30.70;93.10
54884;DHT22;40776;52.880;6.016;2022-07-29T16:38:16;30.60;92.40
54884;DHT22;40776;52.880;6.016;2022-07-29T16:40:42;31.20;91.90
54884;DHT22;40776;52.880;6.016;2022-07-29T16:43:08;31.20;91.90
54884;DHT22;40776;52.880;6.016;2022-07-29T16:45:34;31.10;91.90
54884;DHT22;40776;52.880;6.016;2022-07-29T16:48:00;30.40;92.20
54884;DHT22;40776;52.880;6.016;2022-07-29T16:50:30;30.40;91.80
54884;DHT22;40776;52.880;6.016;2022-07-29T16:52:59;30.60;91.20
54884;DHT22;40776;52.880;6.016;2022-07-29T16:55:25;30.90;91.10
54884;DHT22;40776;52.880;6.016;2022-07-29T16:57:51;31.40;91.80
54884;DHT22;40776;52.880;6.016;2022-07-29T17:00:18;31.40;91.50
54884;DHT22;40776;52.880;6.016;2022-07-29T17:02:44;31.10;91.60
54884;DHT22;40776;52.880;6.016;2022-07-29T17:05:11;31.30;91.70
54884;DHT22;40776;52.880;6.016;2022-07-29T17:07:38;31.30;91.90
54884;DHT22;40776;52.880;6.016;2022-07-29T17:10:04;31.30;91.50
54884;DHT22;40776;52.880;6.016;2022-07-29T17:12:32;30.90;91.70
54884;DHT22;40776;52.880;6.016;2022-07-29T17:14:59;31.20;92.50
54884;DHT22;40776;52.880;6.016;2022-07-29T17:17:24;30.80;92.60
54884;DHT22;40776;52.880;6.016;2022-07-29T17:19:50;30.30;93.10
54884;DHT22;40776;52.880;6.016;2022-07-29T17:22:16;30.20;93.00
54884;DHT22;40776;52.880;6.016;2022-07-29T17:24:41;30.50;93.40
54884;DHT22;40776;52.880;6.016;2022-07-29T17:27:08;30.70;93.50
54884;DHT22;40776;52.880;6.016;2022-07-29T17:29:34;30.80;93.60
54884;DHT22;40776;52.880;6.016;2022-07-29T17:31:59;30.00;93.80
54884;DHT22;40776;52.880;6.016;2022-07-29T17:34:25;29.60;94.70
54884;DHT22;40776;52.880;6.016;2022-07-29T17:36:51;29.20;95.10
54884;DHT22;40776;52.880;6.016;2022-07-29T17:39:17;29.10;95.70
54884;DHT22;40776;52.880;6.016;2022-07-29T17:41:43;29.00;95.90
54884;DHT22;40776;52.880;6.016;2022-07-29T17:44:11;29.00;96.00
54884;DHT22;40776;52.880;6.016;2022-07-29T17:46:36;29.10;96.10
54884;DHT22;40776;52.880;6.016;2022-07-29T17:49:02;30.50;96.50
54884;DHT22;40776;52.880;6.016;2022-07-29T17:55:10;28.50;96.20
54884;DHT22;40776;52.880;6.016;2022-07-29T17:57:37;28.40;97.00
54884;DHT22;40776;52.880;6.016;2022-07-29T18:00:04;28.40;97.40
54884;DHT22;40776;52.880;6.016;2022-07-29T18:02:30;27.70;97.60
54884;DHT22;40776;52.880;6.016;2022-07-29T18:04:56;27.20;98.10
54884;DHT22;40776;52.880;6.016;2022-07-29T18:07:21;26.40;99.20
54884;DHT22;40776;52.880;6.016;2022-07-29T18:09:48;26.20;99.50
54884;DHT22;40776;52.880;6.016;2022-07-29T18:12:14;25.70;99.90
54884;DHT22;40776;52.880;6.016;2022-07-29T18:14:40;26.40;99.90
54884;DHT22;40776;52.880;6.016;2022-07-29T18:17:06;24.90;99.90
54884;DHT22;40776;52.880;6.016;2022-07-29T18:19:31;24.60;99.90
54884;DHT22;40776;52.880;6.016;2022-07-29T18:21:57;24.20;99.90
54884;DHT22;40776;52.880;6.016;2022-07-29T18:24:23;24.20;99.90
54884;DHT22;40776;52.880;6.016;2022-07-29T18:26:49;23.90;99.90
54884;DHT22;40776;52.880;6.016;2022-07-29T18:34:07;23.90;99.90
54884;DHT22;40776;52.880;6.016;2022-07-29T18:36:32;23.80;99.90
54884;DHT22;40776;52.880;6.016;2022-07-29T18:38:58;23.50;99.90
54884;DHT22;40776;52.880;6.016;2022-07-29T18:48:44;22.90;99.90
54884;DHT22;40776;52.880;6.016;2022-07-29T18:56:02;22.50;99.90
54884;DHT22;40776;52.880;6.016;2022-07-29T19:35:06;20.70;99.90
54884;DHT22;40776;52.880;6.016;2022-07-29T19:38:03;20.60;99.90
54884;DHT22;40776;52.880;6.016;2022-07-29T19:45:23;20.70;99.90
54884;DHT22;40776;52.880;6.016;2022-07-29T20:05:10;19.80;99.90
54884;DHT22;40776;52.880;6.016;2022-07-29T20:10:03;19.60;99.90
54884;DHT22;40776;52.880;6.016;2022-07-29T20:29:38;19.20;99.90
54884;DHT22;40776;52.880;6.016;2022-07-29T20:32:06;19.00;99.90
